Time;durP1;ratioP1;P1;durP2;ratioP2;P2;SDS_P1;SDS_P2;PMS_P1;PMS_P2;Temp;Humidity;BMP_temperature;BMP_pressure;BME280_temperature;BME280_humidity;BME280_pressure;Samples;Min_cycle;Max_cycle;Signal;HPM_P1;HPM_P2
2023/05/15 00:00:50;;;;;;;;;;;13.70;99.90;;;;;;5032088;28;19944;-40
2023/05/15 00:03:16;;;;;;;;;;;13.70;99.90;;;;;;5032100;28;19905;-40
2023/05/15 00:05:41;;;;;;;;;;;13.70;99.90;;;;;;5031904;28;19912;-41
2023/05/15 00:08:07;;;;;;;;;;;13.70;99.90;;;;;;5031633;28;19909;-41
2023/05/15 00:10:33;;;;;;;;;;;13.70;99.90;;;;;;5031925;28;19909;-40
2023/05/15 00:12:58;;;;;;;;;;;13.70;99.90;;;;;;5032078;28;20374;-40
2023/05/15 00:15:24;;;;;;;;;;;13.70;99.90;;;;;;5032121;28;19952;-40
2023/05/15 00:17:49;;;;;;;;;;;13.70;99.90;;;;;;5031455;28;19913;-42
2023/05/15 00:20:15;;;;;;;;;;;13.70;99.90;;;;;;5031857;28;19905;-40
2023/05/15 00:22:40;;;;;;;;;;;13.70;99.90;;;;;;5031850;28;19908;-39
2023/05/15 00:25:06;;;;;;;;;;;13.70;99.90;;;;;;5031862;28;19999;-40
2023/05/15 00:27:32;;;;;;;;;;;13.70;99.90;;;;;;5031377;28;19909;-41
2023/05/15 00:29:57;;;;;;;;;;;13.70;99.90;;;;;;5032668;28;19955;-40
2023/05/15 00:32:23;;;;;;;;;;;13.70;99.90;;;;;;5035853;28;19912;-39
2023/05/15 00:34:48;;;;;;;;;;;13.70;99.90;;;;;;5035836;28;20082;-40
2023/05/15 00:37:14;;;;;;;;;;;13.70;99.90;;;;;;5035124;28;19909;-39
2023/05/15 00:39:39;;;;;;;;;;;13.70;99.90;;;;;;5035410;28;19924;-40
2023/05/15 00:42:05;;;;;;;;;;;13.60;99.90;;;;;;5035713;28;20391;-40
2023/05/15 00:44:31;;;;;;;;;;;13.70;99.90;;;;;;5035579;28;19964;-40
2023/05/15 00:46:57;;;;;;;;;;;13.60;99.90;;;;;;5035101;28;19947;-39
2023/05/15 00:49:25;;;;;;;;;;;13.60;99.90;;;;;;5035474;28;20437;-40
2023/05/15 00:51:51;;;;;;;;;;;13.60;99.90;;;;;;5035458;28;20370;-40
2023/05/15 00:54:17;;;;;;;;;;;13.60;99.90;;;;;;5035367;28;19912;-40
2023/05/15 00:56:43;;;;;;;;;;;13.60;99.90;;;;;;5034809;28;20015;-40
2023/05/15 00:59:09;;;;;;;;;;;13.60;99.90;;;;;;5035303;28;19959;-40
2023/05/15 01:01:35;;;;;;;;;;;13.60;99.90;;;;;;5035358;28;19905;-40
2023/05/15 01:04:01;;;;;;;;;;;13.60;99.90;;;;;;5035293;28;19909;-40
2023/05/15 01:06:27;;;;;;;;;;;13.60;99.90;;;;;;5035094;28;19905;-40
2023/05/15 01:08:55;;;;;;;;;;;13.60;99.90;;;;;;5035003;28;19916;-40
2023/05/15 01:11:22;;;;;;;;;;;13.60;99.90;;;;;;5035301;28;20352;-40
2023/05/15 01:13:47;;;;;;;;;;;13.60;99.90;;;;;;5035326;28;19905;-40
2023/05/15 01:16:13;;;;;;;;;;;13.60;99.90;;;;;;5034365;28;19916;-40
2023/05/15 01:18:38;;;;;;;;;;;13.60;99.90;;;;;;5034952;28;20387;-39
2023/05/15 01:21:07;;;;;;;;;;;13.60;99.90;;;;;;5034900;28;19905;-39
2023/05/15 01:24:00;;;;;;;;;;;13.60;99.90;;;;;;5034895;28;19912;-40
2023/05/15 01:26:25;;;;;;;;;;;13.60;99.90;;;;;;5034360;28;19905;-40
2023/05/15 01:28:57;;;;;;;;;;;13.60;99.90;;;;;;5034807;28;19932;-40
2023/05/15 01:31:23;;;;;;;;;;;13.60;99.90;;;;;;5034803;28;19912;-40
2023/05/15 01:33:53;;;;;;;;;;;13.60;99.90;;;;;;5034541;28;19916;-40
2023/05/15 01:36:30;;;;;;;;;;;13.60;99.90;;;;;;5034145;28;19909;-39
2023/05/15 01:38:56;;;;;;;;;;;13.60;99.90;;;;;;5035011;28;20386;-39
2023/05/15 01:41:30;;;;;;;;;;;13.60;99.90;;;;;;5034081;28;20366;-40
2023/05/15 01:43:59;;;;;;;;;;;13.60;99.90;;;;;;5034535;28;19952;-41
2023/05/15 01:46:26;;;;;;;;;;;13.60;99.90;;;;;;5033946;28;19936;-40
2023/05/15 01:48:53;;;;;;;;;;;13.60;99.90;;;;;;5034422;28;20227;-39
2023/05/15 01:51:19;;;;;;;;;;;13.60;99.90;;;;;;5034406;28;20414;-40
2023/05/15 01:53:45;;;;;;;;;;;13.60;99.90;;;;;;5034330;28;19959;-40
2023/05/15 01:56:12;;;;;;;;;;;13.60;99.90;;;;;;5033763;28;19913;-40
2023/05/15 01:58:38;;;;;;;;;;;13.60;99.90;;;;;;5034042;28;20381;-40
2023/05/15 02:01:04;;;;;;;;;;;13.60;99.90;;;;;;5034185;28;19916;-40
2023/05/15 02:03:33;;;;;;;;;;;13.60;99.90;;;;;;5034404;28;19905;-39
2023/05/15 02:05:59;;;;;;;;;;;13.60;99.90;;;;;;5033767;28;20004;-39
2023/05/15 02:08:27;;;;;;;;;;;13.60;99.90;;;;;;5033955;28;19983;-40
2023/05/15 02:10:54;;;;;;;;;;;13.60;99.90;;;;;;5034072;28;20378;-39
2023/05/15 02:13:20;;;;;;;;;;;13.60;99.90;;;;;;5034362;28;19955;-40
2023/05/15 02:15:46;;;;;;;;;;;13.60;99.90;;;;;;5033915;28;20255;-39
2023/05/15 02:18:11;;;;;;;;;;;13.60;99.90;;;;;;5033644;28;19927;-41
2023/05/15 02:20:37;;;;;;;;;;;13.60;99.90;;;;;;5033872;28;19912;-40
2023/05/15 02:23:02;;;;;;;;;;;13.60;99.90;;;;;;5033903;28;19905;-40
2023/05/15 02:25:37;;;;;;;;;;;13.60;99.90;;;;;;5033807;28;19905;-40
2023/05/15 02:28:05;;;;;;;;;;;13.60;99.90;;;;;;5033199;28;19909;-41
2023/05/15 02:30:37;;;;;;;;;;;13.60;99.90;;;;;;5033840;28;19905;-39
2023/05/15 02:33:16;;;;;;;;;;;13.60;99.90;;;;;;5033610;28;20362;-40
2023/05/15 02:35:54;;;;;;;;;;;13.60;99.90;;;;;;5033396;28;19905;-39
2023/05/15 02:38:32;;;;;;;;;;;13.60;99.90;;;;;;5033189;28;19915;-41
2023/05/15 02:40:59;;;;;;;;;;;13.60;99.90;;;;;;5033763;28;19905;-40
2023/05/15 02:43:25;;;;;;;;;;;13.60;99.90;;;;;;5033501;28;20366;-39
2023/05/15 02:45:51;;;;;;;;;;;13.60;99.90;;;;;;5033075;28;19905;-41
2023/05/15 02:48:17;;;;;;;;;;;13.60;99.90;;;;;;5033099;28;20333;-40
2023/05/15 02:50:42;;;;;;;;;;;13.60;99.90;;;;;;5033359;28;19905;-41
2023/05/15 02:53:08;;;;;;;;;;;13.60;99.90;;;;;;5032285;28;20371;-39
2023/05/15 02:55:35;;;;;;;;;;;13.60;99.90;;;;;;5033239;28;19944;-40
2023/05/15 02:58:01;;;;;;;;;;;13.60;99.90;;;;;;5032657;28;19935;-39
2023/05/15 03:00:27;;;;;;;;;;;13.60;99.90;;;;;;5033035;28;20358;-39
2023/05/15 03:02:52;;;;;;;;;;;13.60;99.90;;;;;;5033089;28;19971;-40
2023/05/15 03:05:18;;;;;;;;;;;13.60;99.90;;;;;;5032963;28;19905;-39
2023/05/15 03:07:43;;;;;;;;;;;13.60;99.90;;;;;;5032461;28;20263;-40
2023/05/15 03:10:09;;;;;;;;;;;13.60;99.90;;;;;;5033090;28;19909;-40
2023/05/15 03:12:35;;;;;;;;;;;13.60;99.90;;;;;;5032960;28;20418;-41
2023/05/15 03:15:01;;;;;;;;;;;13.60;99.90;;;;;;5032876;28;19912;-40
2023/05/15 03:17:26;;;;;;;;;;;13.60;99.90;;;;;;5032208;28;19909;-39
2023/05/15 03:19:52;;;;;;;;;;;13.60;99.90;;;;;;5032593;28;19905;-40
2023/05/15 03:22:17;;;;;;;;;;;13.60;99.90;;;;;;5032720;28;19916;-39
2023/05/15 03:24:43;;;;;;;;;;;13.60;99.90;;;;;;5032778;28;20363;-39
2023/05/15 03:27:08;;;;;;;;;;;13.60;99.90;;;;;;5032116;28;20377;-40
2023/05/15 03:29:34;;;;;;;;;;;13.60;99.90;;;;;;5032434;28;19905;-40
2023/05/15 03:31:59;;;;;;;;;;;13.60;99.90;;;;;;5032514;28;19948;-41
2023/05/15 03:34:25;;;;;;;;;;;13.60;99.90;;;;;;5032528;28;20384;-40
2023/05/15 03:36:50;;;;;;;;;;;13.60;99.90;;;;;;5031898;28;19913;-40
2023/05/15 03:39:16;;;;;;;;;;;13.60;99.90;;;;;;5032317;28;19917;-39
2023/05/15 03:41:41;;;;;;;;;;;13.60;99.90;;;;;;5032451;28;20196;-40
2023/05/15 03:44:07;;;;;;;;;;;13.60;99.90;;;;;;5032392;28;19905;-40
2023/05/15 03:46:32;;;;;;;;;;;13.60;99.90;;;;;;5031886;28;19905;-40
2023/05/15 03:48:58;;;;;;;;;;;13.60;99.90;;;;;;5032213;28;19992;-40
2023/05/15 03:51:23;;;;;;;;;;;13.60;99.90;;;;;;5032210;28;19951;-39
2023/05/15 03:53:49;;;;;;;;;;;13.60;99.90;;;;;;5032288;28;20007;-40
2023/05/15 03:56:15;;;;;;;;;;;13.60;99.90;;;;;;5031672;28;19909;-40
2023/05/15 03:58:40;;;;;;;;;;;13.60;99.90;;;;;;5032205;28;19916;-42
2023/05/15 04:01:06;;;;;;;;;;;13.60;99.90;;;;;;5032231;28;19912;-39
2023/05/15 04:03:32;;;;;;;;;;;13.60;99.90;;;;;;5031927;28;19905;-40
2023/05/15 04:05:57;;;;;;;;;;;13.60;99.90;;;;;;5031590;28;19909;-40
2023/05/15 04:08:23;;;;;;;;;;;13.60;99.90;;;;;;5032104;28;20313;-39
2023/05/15 04:10:49;;;;;;;;;;;13.60;99.90;;;;;;5032207;28;20325;-40
2023/05/15 04:13:14;;;;;;;;;;;13.60;99.90;;;;;;5032142;28;20286;-39
2023/05/15 04:15:40;;;;;;;;;;;13.60;99.90;;;;;;5031794;28;19905;-40
2023/05/15 04:18:05;;;;;;;;;;;13.60;99.90;;;;;;5031701;28;20282;-41
2023/05/15 04:20:32;;;;;;;;;;;13.60;99.90;;;;;;5031913;28;19931;-40
2023/05/15 04:22:58;;;;;;;;;;;13.60;99.90;;;;;;5031983;28;20294;-40
2023/05/15 04:25:23;;;;;;;;;;;13.60;99.90;;;;;;5031516;28;19905;-40
2023/05/15 04:27:49;;;;;;;;;;;13.60;99.90;;;;;;5031393;28;19932;-40
2023/05/15 04:30:14;;;;;;;;;;;13.60;99.90;;;;;;5031773;28;19912;-41
2023/05/15 04:32:41;;;;;;;;;;;13.60;99.90;;;;;;5031734;28;19905;-40
2023/05/15 04:35:12;;;;;;;;;;;13.60;99.90;;;;;;5031915;28;19952;-40
2023/05/15 04:37:38;;;;;;;;;;;13.60;99.90;;;;;;5031349;28;19916;-40
2023/05/15 04:40:06;;;;;;;;;;;13.60;99.90;;;;;;5031698;28;19913;-41
2023/05/15 04:42:31;;;;;;;;;;;13.60;99.90;;;;;;5031775;28;20043;-40
2023/05/15 04:44:57;;;;;;;;;;;13.60;99.90;;;;;;5031630;28;20377;-40
2023/05/15 04:47:22;;;;;;;;;;;13.60;99.90;;;;;;5031253;28;19959;-40
2023/05/15 04:49:49;;;;;;;;;;;13.60;99.90;;;;;;5031685;28;20027;-40
2023/05/15 04:52:14;;;;;;;;;;;13.60;99.90;;;;;;5031692;28;19951;-40
2023/05/15 04:54:40;;;;;;;;;;;13.60;99.90;;;;;;5031729;28;19909;-39
2023/05/15 04:57:06;;;;;;;;;;;13.60;99.90;;;;;;5031129;28;19909;-40
2023/05/15 04:59:32;;;;;;;;;;;13.60;99.90;;;;;;5031539;28;20307;-40
2023/05/15 05:01:57;;;;;;;;;;;13.60;99.90;;;;;;5031710;28;20251;-40
2023/05/15 05:04:23;;;;;;;;;;;13.60;99.90;;;;;;5031559;28;19905;-40
2023/05/15 05:06:49;;;;;;;;;;;13.60;99.90;;;;;;5031096;28;20667;-40
2023/05/15 05:09:14;;;;;;;;;;;13.60;99.90;;;;;;5031629;28;19912;-40
2023/05/15 05:11:42;;;;;;;;;;;13.60;99.90;;;;;;5031555;28;20282;-40
2023/05/15 05:14:09;;;;;;;;;;;13.60;99.90;;;;;;5031446;28;19905;-39
2023/05/15 05:16:34;;;;;;;;;;;13.60;99.90;;;;;;5032635;28;19963;-40
2023/05/15 05:19:00;;;;;;;;;;;13.70;99.90;;;;;;5034961;28;19999;-39
2023/05/15 05:21:25;;;;;;;;;;;13.60;99.90;;;;;;5035244;28;19905;-40
2023/05/15 05:23:51;;;;;;;;;;;13.70;99.90;;;;;;5034917;28;19905;-40
2023/05/15 05:26:16;;;;;;;;;;;13.70;99.90;;;;;;5034349;28;19971;-40
2023/05/15 05:28:42;;;;;;;;;;;13.70;99.90;;;;;;5034588;28;19905;-40
2023/05/15 05:31:07;;;;;;;;;;;13.70;99.90;;;;;;5034826;28;19905;-39
2023/05/15 05:33:33;;;;;;;;;;;13.70;99.90;;;;;;5034804;28;19909;-39
2023/05/15 05:35:59;;;;;;;;;;;13.70;99.90;;;;;;5034151;28;19905;-40
2023/05/15 05:38:26;;;;;;;;;;;13.70;99.90;;;;;;5034500;28;19908;-40
2023/05/15 05:40:52;;;;;;;;;;;13.70;99.90;;;;;;5034603;28;20363;-40
2023/05/15 05:43:17;;;;;;;;;;;13.70;99.90;;;;;;5034399;28;19951;-40
2023/05/15 05:45:43;;;;;;;;;;;13.70;99.90;;;;;;5034483;28;19905;-40
2023/05/15 05:48:08;;;;;;;;;;;13.70;99.90;;;;;;5034229;28;19905;-41
2023/05/15 05:50:34;;;;;;;;;;;13.70;99.90;;;;;;5034473;28;20274;-40
2023/05/15 05:52:59;;;;;;;;;;;13.70;99.90;;;;;;5034511;28;19960;-40
2023/05/15 05:55:25;;;;;;;;;;;13.80;99.90;;;;;;5034362;28;19905;-39
2023/05/15 05:57:50;;;;;;;;;;;13.80;99.90;;;;;;5033693;28;19917;-40
2023/05/15 06:00:16;;;;;;;;;;;13.80;99.90;;;;;;5034478;28;20298;-40
2023/05/15 06:02:42;;;;;;;;;;;13.80;99.90;;;;;;5034201;28;19937;-40
2023/05/15 06:05:07;;;;;;;;;;;13.80;99.90;;;;;;5034172;28;19912;-40
2023/05/15 06:07:33;;;;;;;;;;;13.80;99.90;;;;;;5033710;28;19912;-40
2023/05/15 06:09:58;;;;;;;;;;;13.80;99.90;;;;;;5033996;28;19905;-40
2023/05/15 06:12:24;;;;;;;;;;;13.80;99.90;;;;;;5033908;28;19913;-40
2023/05/15 06:14:49;;;;;;;;;;;13.80;99.90;;;;;;5034010;28;20282;-39
2023/05/15 06:17:15;;;;;;;;;;;13.80;99.90;;;;;;5033397;28;19915;-40
2023/05/15 06:19:40;;;;;;;;;;;13.90;99.90;;;;;;5033940;28;20370;-40
2023/05/15 06:22:06;;;;;;;;;;;13.90;99.90;;;;;;5033879;28;19905;-40
2023/05/15 06:24:32;;;;;;;;;;;13.90;99.90;;;;;;5033815;28;19909;-40
2023/05/15 06:26:57;;;;;;;;;;;13.90;99.90;;;;;;5033274;28;19912;-40
2023/05/15 06:29:23;;;;;;;;;;;13.90;99.90;;;;;;5033475;28;19943;-40
2023/05/15 06:31:48;;;;;;;;;;;13.90;99.90;;;;;;5033655;28;19966;-39
2023/05/15 06:34:14;;;;;;;;;;;14.00;99.90;;;;;;5033561;28;19916;-40
2023/05/15 06:36:39;;;;;;;;;;;14.00;99.90;;;;;;5033053;28;19920;-39
2023/05/15 06:39:05;;;;;;;;;;;14.00;99.90;;;;;;5033362;28;19966;-41
2023/05/15 06:41:31;;;;;;;;;;;14.00;99.90;;;;;;5033426;28;19912;-39
2023/05/15 06:43:58;;;;;;;;;;;14.00;99.90;;;;;;5033386;28;19959;-39
2023/05/15 06:46:23;;;;;;;;;;;14.10;99.90;;;;;;5032834;28;20386;-40
2023/05/15 06:48:49;;;;;;;;;;;14.10;99.90;;;;;;5033311;28;19908;-41
2023/05/15 06:51:14;;;;;;;;;;;14.10;99.90;;;;;;5033399;28;19905;-40
2023/05/15 06:53:40;;;;;;;;;;;14.10;99.90;;;;;;5033245;28;20370;-41
2023/05/15 06:56:06;;;;;;;;;;;14.10;99.90;;;;;;5032581;28;19909;-39
2023/05/15 06:58:31;;;;;;;;;;;14.10;99.90;;;;;;5033053;28;19911;-40
2023/05/15 07:00:57;;;;;;;;;;;14.10;99.90;;;;;;5033122;28;20267;-40
2023/05/15 07:03:22;;;;;;;;;;;14.10;99.90;;;;;;5033155;28;19916;-40
2023/05/15 07:05:48;;;;;;;;;;;14.10;99.90;;;;;;5032777;28;19999;-40
2023/05/15 07:08:13;;;;;;;;;;;14.10;99.90;;;;;;5032800;28;19909;-39
2023/05/15 07:10:39;;;;;;;;;;;14.20;99.90;;;;;;5032943;28;20428;-40
2023/05/15 07:13:04;;;;;;;;;;;14.20;99.90;;;;;;5032745;28;19947;-39
2023/05/15 07:15:30;;;;;;;;;;;14.20;99.90;;;;;;5032894;28;19951;-39
2023/05/15 07:17:56;;;;;;;;;;;14.20;99.90;;;;;;5032268;28;19909;-40
2023/05/15 07:20:21;;;;;;;;;;;14.20;99.90;;;;;;5032726;28;19928;-40
2023/05/15 07:22:46;;;;;;;;;;;14.20;99.90;;;;;;5032713;28;20302;-40
2023/05/15 07:25:12;;;;;;;;;;;14.20;99.90;;;;;;5032706;28;20003;-39
2023/05/15 07:27:37;;;;;;;;;;;14.20;99.90;;;;;;5031919;28;19909;-39
2023/05/15 07:30:03;;;;;;;;;;;14.20;99.90;;;;;;5032620;28;19988;-40
2023/05/15 07:32:29;;;;;;;;;;;14.20;99.90;;;;;;5032744;28;19995;-41
2023/05/15 07:34:55;;;;;;;;;;;14.20;99.90;;;;;;5032542;28;19920;-41
2023/05/15 07:37:21;;;;;;;;;;;14.20;99.90;;;;;;5031919;28;19955;-40
2023/05/15 07:39:47;;;;;;;;;;;14.30;99.90;;;;;;5070245;22;19921;-41
2023/05/15 07:42:13;;;;;;;;;;;14.30;99.90;;;;;;5032411;28;19912;-40
2023/05/15 07:44:38;;;;;;;;;;;14.30;99.90;;;;;;5032757;28;19936;-42
2023/05/15 07:47:04;;;;;;;;;;;14.30;99.90;;;;;;5031963;28;19996;-40
2023/05/15 07:49:29;;;;;;;;;;;14.30;99.90;;;;;;5032179;28;19904;-40
2023/05/15 07:51:55;;;;;;;;;;;14.30;99.90;;;;;;5032659;28;20513;-40
2023/05/15 07:54:20;;;;;;;;;;;14.30;99.90;;;;;;5032266;28;20012;-40
2023/05/15 07:56:46;;;;;;;;;;;14.30;99.90;;;;;;5031708;28;19959;-41
2023/05/15 07:59:11;;;;;;;;;;;14.30;99.90;;;;;;5032259;28;19905;-40
2023/05/15 08:01:37;;;;;;;;;;;14.30;99.90;;;;;;5032261;28;20567;-43
2023/05/15 08:04:05;;;;;;;;;;;14.40;99.90;;;;;;5032051;28;19912;-41
2023/05/15 08:06:31;;;;;;;;;;;14.40;99.90;;;;;;5031665;28;20282;-42
2023/05/15 08:08:57;;;;;;;;;;;14.40;99.90;;;;;;5031976;28;19944;-41
2023/05/15 08:11:22;;;;;;;;;;;14.40;99.90;;;;;;5032026;28;19955;-41
2023/05/15 08:13:48;;;;;;;;;;;14.40;99.90;;;;;;5032116;28;19933;-42
2023/05/15 08:16:13;;;;;;;;;;;14.40;99.90;;;;;;5031442;28;20392;-41
2023/05/15 08:18:39;;;;;;;;;;;14.40;99.90;;;;;;5031821;28;19912;-41
2023/05/15 08:21:05;;;;;;;;;;;14.40;99.90;;;;;;5031856;28;19905;-40
2023/05/15 08:23:30;;;;;;;;;;;14.50;99.90;;;;;;5032058;28;19905;-41
2023/05/15 08:25:56;;;;;;;;;;;14.50;99.90;;;;;;5031479;28;20412;-41
2023/05/15 08:28:21;;;;;;;;;;;14.50;99.90;;;;;;5031625;28;19916;-41
2023/05/15 08:30:47;;;;;;;;;;;14.50;99.90;;;;;;5031788;28;19924;-41
2023/05/15 08:33:12;;;;;;;;;;;14.50;99.90;;;;;;5031749;28;19905;-41
2023/05/15 08:35:38;;;;;;;;;;;14.50;99.90;;;;;;5031810;28;20325;-40
2023/05/15 08:38:03;;;;;;;;;;;14.50;99.90;;;;;;5031386;28;19909;-40
2023/05/15 08:40:29;;;;;;;;;;;14.50;99.90;;;;;;5031858;28;20393;-40
2023/05/15 08:42:57;;;;;;;;;;;14.50;99.90;;;;;;5032183;28;19909;-40
2023/05/15 08:45:22;;;;;;;;;;;14.50;99.90;;;;;;5031722;28;19909;-40
2023/05/15 08:47:48;;;;;;;;;;;14.50;99.90;;;;;;5031217;28;19911;-40
2023/05/15 08:50:14;;;;;;;;;;;14.50;99.90;;;;;;5032090;28;19905;-40
2023/05/15 08:52:41;;;;;;;;;;;14.50;99.90;;;;;;5035217;28;19940;-40
2023/05/15 08:55:07;;;;;;;;;;;14.50;99.90;;;;;;5035524;28;20282;-40
2023/05/15 08:57:33;;;;;;;;;;;14.50;99.90;;;;;;5034847;28;20354;-41
2023/05/15 08:59:59;;;;;;;;;;;14.60;99.90;;;;;;5035335;28;19951;-41
2023/05/15 09:02:25;;;;;;;;;;;14.50;99.90;;;;;;5035096;28;19904;-40
2023/05/15 09:04:50;;;;;;;;;;;14.50;99.90;;;;;;5035233;28;19905;-41
2023/05/15 09:07:16;;;;;;;;;;;14.60;99.90;;;;;;5034789;28;19905;-41
2023/05/15 09:09:43;;;;;;;;;;;14.60;99.90;;;;;;5035110;28;19909;-40
2023/05/15 09:12:13;;;;;;;;;;;14.60;99.90;;;;;;5035153;28;19905;-40
2023/05/15 09:14:39;;;;;;;;;;;14.60;99.90;;;;;;5035098;28;19905;-42
2023/05/15 09:17:04;;;;;;;;;;;14.60;99.90;;;;;;5034364;28;20263;-41
2023/05/15 09:19:32;;;;;;;;;;;14.60;99.90;;;;;;5034975;28;19928;-40
2023/05/15 09:22:15;;;;;;;;;;;14.70;99.90;;;;;;5034988;28;19909;-41
2023/05/15 09:24:40;;;;;;;;;;;14.60;99.90;;;;;;5034887;28;19911;-41
2023/05/15 09:27:06;;;;;;;;;;;14.60;99.90;;;;;;5034503;28;19999;-40
2023/05/15 09:29:33;;;;;;;;;;;14.70;99.90;;;;;;5034733;28;20035;-41
2023/05/15 09:32:02;;;;;;;;;;;14.70;99.90;;;;;;5034878;28;19909;-41
2023/05/15 09:34:29;;;;;;;;;;;14.70;99.90;;;;;;5034860;28;20338;-41
2023/05/15 09:36:55;;;;;;;;;;;14.70;99.90;;;;;;5034132;28;20411;-41
2023/05/15 09:39:23;;;;;;;;;;;14.70;99.90;;;;;;5034464;28;19909;-42
2023/05/15 09:41:49;;;;;;;;;;;14.70;99.90;;;;;;5034584;28;20431;-42
2023/05/15 09:44:19;;;;;;;;;;;14.70;99.90;;;;;;5034579;28;19909;-41
2023/05/15 09:46:45;;;;;;;;;;;14.80;99.90;;;;;;5034042;28;20304;-40
2023/05/15 09:49:11;;;;;;;;;;;14.80;99.90;;;;;;5034426;28;20429;-40
2023/05/15 09:51:36;;;;;;;;;;;14.80;99.90;;;;;;5034489;28;19959;-40
2023/05/15 09:54:02;;;;;;;;;;;14.80;99.90;;;;;;5034342;28;20332;-40
2023/05/15 09:56:28;;;;;;;;;;;14.90;99.90;;;;;;5033801;28;19916;-40
2023/05/15 09:58:54;;;;;;;;;;;14.90;99.90;;;;;;5034157;28;19905;-40
2023/05/15 10:01:21;;;;;;;;;;;14.90;99.90;;;;;;5034197;28;19909;-42
2023/05/15 10:04:16;;;;;;;;;;;14.90;99.90;;;;;;5034254;28;19966;-41
2023/05/15 10:06:44;;;;;;;;;;;14.90;99.90;;;;;;5029298;28;20360;-40
2023/05/15 10:09:10;;;;;;;;;;;14.90;99.90;;;;;;5033969;28;19956;-41
2023/05/15 10:11:39;;;;;;;;;;;14.90;99.90;;;;;;5034323;28;19944;-41
2023/05/15 10:14:06;;;;;;;;;;;14.90;99.90;;;;;;5033993;28;19905;-40
2023/05/15 10:16:33;;;;;;;;;;;14.90;99.90;;;;;;5032193;28;19913;-42
2023/05/15 10:18:59;;;;;;;;;;;14.90;99.90;;;;;;5033999;28;19905;-41
2023/05/15 10:21:26;;;;;;;;;;;15.00;99.90;;;;;;5034010;28;20077;-41
2023/05/15 10:23:53;;;;;;;;;;;14.90;99.90;;;;;;5033721;28;19909;-40
2023/05/15 10:26:36;;;;;;;;;;;15.00;99.90;;;;;;5033312;28;19905;-40
2023/05/15 10:29:07;;;;;;;;;;;15.00;99.90;;;;;;5033648;28;19913;-41
2023/05/15 10:31:34;;;;;;;;;;;15.00;99.90;;;;;;5033716;28;19909;-40
2023/05/15 10:34:00;;;;;;;;;;;15.00;99.90;;;;;;5033558;28;19993;-41
2023/05/15 10:36:25;;;;;;;;;;;14.90;99.90;;;;;;5033019;28;20014;-42
2023/05/15 10:38:51;;;;;;;;;;;14.90;99.90;;;;;;5033523;28;19909;-40
2023/05/15 10:41:19;;;;;;;;;;;14.90;99.90;;;;;;5033408;28;19920;-41
2023/05/15 10:43:45;;;;;;;;;;;15.00;99.90;;;;;;5033484;28;19998;-41
2023/05/15 10:46:11;;;;;;;;;;;14.90;99.90;;;;;;5032859;28;19952;-41
2023/05/15 10:48:37;;;;;;;;;;;15.00;99.90;;;;;;5033248;28;19905;-41
2023/05/15 10:51:03;;;;;;;;;;;15.00;99.90;;;;;;5033204;28;20003;-41
2023/05/15 10:53:28;;;;;;;;;;;15.00;99.90;;;;;;5033296;28;19909;-41
2023/05/15 10:55:54;;;;;;;;;;;15.00;99.90;;;;;;5032898;28;20011;-40
2023/05/15 10:58:23;;;;;;;;;;;15.00;99.90;;;;;;5033042;28;19948;-40
2023/05/15 11:00:48;;;;;;;;;;;15.00;99.90;;;;;;5031942;28;20091;-40
2023/05/15 11:03:14;;;;;;;;;;;15.10;99.90;;;;;;5032973;28;20297;-40
2023/05/15 11:05:58;;;;;;;;;;;15.00;99.90;;;;;;5032969;28;19928;-40
2023/05/15 11:08:27;;;;;;;;;;;15.00;99.90;;;;;;5032820;28;19982;-42
2023/05/15 11:10:53;;;;;;;;;;;15.10;99.90;;;;;;5032851;28;19912;-42
2023/05/15 11:13:18;;;;;;;;;;;15.10;99.90;;;;;;5032612;28;19989;-40
2023/05/15 11:15:45;;;;;;;;;;;15.10;99.90;;;;;;5032726;28;20293;-40
2023/05/15 11:18:10;;;;;;;;;;;15.10;99.90;;;;;;5032666;28;19932;-41
2023/05/15 11:21:03;;;;;;;;;;;15.10;99.90;;;;;;5032811;28;20271;-41
2023/05/15 11:23:36;;;;;;;;;;;15.10;99.90;;;;;;5031758;28;19909;-41
2023/05/15 11:26:02;;;;;;;;;;;15.10;99.90;;;;;;5032691;28;19916;-41
2023/05/15 11:28:28;;;;;;;;;;;15.10;99.90;;;;;;5032700;28;20019;-41
2023/05/15 11:30:58;;;;;;;;;;;15.10;99.90;;;;;;5032920;28;20373;-40
2023/05/15 11:33:27;;;;;;;;;;;15.10;99.90;;;;;;5032610;28;19945;-40
2023/05/15 11:35:57;;;;;;;;;;;15.10;99.90;;;;;;5032099;28;19947;-40
2023/05/15 11:38:23;;;;;;;;;;;15.10;99.90;;;;;;5031183;28;20297;-41
2023/05/15 11:40:51;;;;;;;;;;;15.10;99.90;;;;;;5032233;28;19995;-40
2023/05/15 11:43:26;;;;;;;;;;;15.10;99.90;;;;;;5032517;28;19905;-41
2023/05/15 11:45:56;;;;;;;;;;;15.20;99.90;;;;;;5032135;28;19905;-40
2023/05/15 11:48:23;;;;;;;;;;;15.20;99.90;;;;;;5032436;28;19905;-40
2023/05/15 11:50:49;;;;;;;;;;;15.10;99.90;;;;;;5032431;28;19909;-41
2023/05/15 11:53:15;;;;;;;;;;;15.20;99.90;;;;;;5032169;28;19952;-41
2023/05/15 11:55:43;;;;;;;;;;;15.20;99.90;;;;;;5032374;28;19940;-40
2023/05/15 11:58:13;;;;;;;;;;;15.20;99.90;;;;;;5032028;28;19909;-40
2023/05/15 12:00:39;;;;;;;;;;;15.20;99.90;;;;;;5032115;28;20366;-41
2023/05/15 12:03:05;;;;;;;;;;;15.20;99.90;;;;;;5032202;28;20389;-40
2023/05/15 12:05:30;;;;;;;;;;;15.20;99.90;;;;;;5032062;28;19905;-41
2023/05/15 12:07:56;;;;;;;;;;;15.20;99.90;;;;;;5031586;28;19909;-41
2023/05/15 12:10:22;;;;;;;;;;;15.20;99.90;;;;;;5032002;28;19909;-42
2023/05/15 12:12:48;;;;;;;;;;;15.20;99.90;;;;;;5032078;28;19905;-40
2023/05/15 12:15:14;;;;;;;;;;;15.20;99.90;;;;;;5032095;28;20312;-39
2023/05/15 12:17:40;;;;;;;;;;;15.20;99.90;;;;;;5031504;28;19920;-41
2023/05/15 12:20:15;;;;;;;;;;;15.20;99.90;;;;;;5032037;28;19975;-38
2023/05/15 12:22:41;;;;;;;;;;;15.20;99.90;;;;;;5032028;28;19905;-39
2023/05/15 12:25:07;;;;;;;;;;;15.20;99.90;;;;;;5033174;28;19909;-39
2023/05/15 12:27:33;;;;;;;;;;;15.20;99.90;;;;;;5035734;28;19912;-40
2023/05/15 12:30:00;;;;;;;;;;;15.30;99.90;;;;;;5036054;28;19905;-40
2023/05/15 12:32:26;;;;;;;;;;;15.20;99.90;;;;;;5035982;28;19909;-40
2023/05/15 12:34:52;;;;;;;;;;;15.30;99.90;;;;;;5035882;28;19905;-39
2023/05/15 12:37:19;;;;;;;;;;;15.20;99.90;;;;;;5035348;28;19909;-40
2023/05/15 12:39:49;;;;;;;;;;;15.30;99.90;;;;;;5036058;28;19917;-39
2023/05/15 12:42:14;;;;;;;;;;;15.30;99.90;;;;;;5036081;28;20313;-40
2023/05/15 12:44:41;;;;;;;;;;;15.20;99.90;;;;;;5035770;28;19905;-41
2023/05/15 12:47:07;;;;;;;;;;;15.30;99.90;;;;;;5035123;28;20079;-39
2023/05/15 12:49:35;;;;;;;;;;;15.30;99.90;;;;;;5035411;28;20425;-39
2023/05/15 12:52:06;;;;;;;;;;;15.30;99.90;;;;;;5035699;28;19951;-40
2023/05/15 12:54:37;;;;;;;;;;;15.30;99.90;;;;;;5035665;28;19912;-39
2023/05/15 12:57:03;;;;;;;;;;;15.30;99.90;;;;;;5035028;28;20007;-39
2023/05/15 12:59:28;;;;;;;;;;;15.30;99.90;;;;;;5035511;28;19992;-39
2023/05/15 13:01:54;;;;;;;;;;;15.30;99.90;;;;;;5035546;28;20358;-40
2023/05/15 13:04:19;;;;;;;;;;;15.30;99.90;;;;;;5035493;28;20389;-40
2023/05/15 13:06:45;;;;;;;;;;;15.30;99.90;;;;;;5034693;28;20398;-42
2023/05/15 13:09:11;;;;;;;;;;;15.30;99.90;;;;;;5035207;28;19905;-41
2023/05/15 13:11:42;;;;;;;;;;;15.30;99.90;;;;;;5035302;28;19905;-41
2023/05/15 13:14:09;;;;;;;;;;;15.40;99.90;;;;;;5035307;28;19909;-42
2023/05/15 13:16:35;;;;;;;;;;;15.40;99.90;;;;;;5034689;28;19924;-41
2023/05/15 13:19:00;;;;;;;;;;;15.40;99.90;;;;;;5035472;28;19905;-41
2023/05/15 13:21:26;;;;;;;;;;;15.40;99.90;;;;;;5035243;28;19924;-42
2023/05/15 13:23:51;;;;;;;;;;;15.40;99.90;;;;;;5035120;28;19905;-41
2023/05/15 13:26:17;;;;;;;;;;;15.40;99.90;;;;;;5034571;28;20373;-41
2023/05/15 13:28:42;;;;;;;;;;;15.40;99.90;;;;;;5034888;28;19905;-41
2023/05/15 13:31:08;;;;;;;;;;;15.50;99.90;;;;;;5035354;28;19985;-41
2023/05/15 13:33:34;;;;;;;;;;;15.50;99.90;;;;;;5034918;28;20274;-40
2023/05/15 13:36:00;;;;;;;;;;;15.50;99.90;;;;;;5034407;28;19909;-43
2023/05/15 13:38:26;;;;;;;;;;;15.50;99.90;;;;;;5034052;28;19915;-43
2023/05/15 13:40:51;;;;;;;;;;;15.50;99.90;;;;;;5058280;22;20004;-39
2023/05/15 13:43:17;;;;;;;;;;;15.50;99.90;;;;;;5034711;28;20007;-39
2023/05/15 13:45:42;;;;;;;;;;;15.50;99.90;;;;;;5034420;28;19909;-39
2023/05/15 13:48:08;;;;;;;;;;;15.60;99.90;;;;;;5034320;28;19905;-39
2023/05/15 13:50:33;;;;;;;;;;;15.60;99.90;;;;;;5034512;28;20024;-39
2023/05/15 13:52:59;;;;;;;;;;;15.60;99.90;;;;;;5034505;28;19931;-39
2023/05/15 13:55:24;;;;;;;;;;;15.50;99.90;;;;;;5033149;28;19905;-40
2023/05/15 13:57:51;;;;;;;;;;;15.60;99.90;;;;;;5033922;28;19936;-40
2023/05/15 14:00:17;;;;;;;;;;;15.60;99.90;;;;;;5034256;28;19999;-40
2023/05/15 14:02:43;;;;;;;;;;;15.60;99.90;;;;;;5034236;28;19905;-40
2023/05/15 14:05:10;;;;;;;;;;;15.60;99.90;;;;;;5034245;28;19916;-40
2023/05/15 14:07:35;;;;;;;;;;;15.60;99.90;;;;;;5033826;28;20396;-40
2023/05/15 14:10:01;;;;;;;;;;;15.60;99.90;;;;;;5034252;28;19905;-39
2023/05/15 14:12:27;;;;;;;;;;;15.70;99.90;;;;;;5034155;28;19912;-39